21:19
Airports
History
Links
Donate
Help keep this website running!
PayPal
Bitcoin
This page is community maintained. The information is intended for PC simulator navigation or reference.
Always use approved charts for navigation.
VIRB
FURSATGANJ
FURSATGANJ (VIRB)
Fursatganj, Uttar Pradesh, India (229302)
(C)
Lat/Lng:26° 14' 54.56" N / 81° 22' 49.81" E
26.248489 / 81.380504
Elevation:360'ft / 110mMSL
ID / ICAO:VIRB
Runways:1
Longest:09-27
Asphalt 1,722m / 5,650ft
Controlled:Yes
Nearby Weather20:30 GMT 2017-11-19
Nearby weather at VILK, LUCKNOW located 46.6 nautical miles from VIRB
Altimeter: 29.94
Visibility: 1.2 statute miles
Wind: 2 knots (from VRB°)
Temp: 17°c / 63°f
Humidity: 82.5%

METAR: VILK 192030Z VRB02KT 2000 BR FEW020 SCT100 17/14 Q1014

(Powered by phpweather)
Airport Radio Frequencies
Tower: 122.5
Nearby VORs <50NM
Nearby NDBs
Runway 09 / 27
Dimensions:1722 x 42.1m 5650' x 138'ft
Surface:Asphalt
Runway 09 [A]Runway 27 [B]
Heading:089°TH 269°TH
Lat:
Lng:
26° 14' 54.39"N
81° 22' 18.78"E
26° 14' 54.73"N
81° 23' 20.85"E
User Notes and Comments
26° 14' 54.56" N / 81° 22' 49.81" E
Distance To
Airport ID:
Nearby Airports
(C) LUCKNOW 46.6 NM
VILK ( WX ) NW 319°
(U) BAKSHI KA TALAB 59.3 NM
VIBL NNW 329°
(C) ALLAHABAD 60.2 NM
VIAL ( WX ) SSE 158°
(C) KANPUR CHAKERI 60.8 NM
VICX ( WX ) W 280°
(C) KANPUR 64.3 NM
VIKA W 281°
(U) KALYANPUR 73.5 NM
VI75 WNW 284°
(U) AKBARPUR 74.8 NM
VI90 E 79°
VFR Chart
Flight Planning at SkyVector.com